Time;durP1;ratioP1;P1;durP2;ratioP2;P2;SDS_P1;SDS_P2;PMS_P1;PMS_P2;Temp;Humidity;BMP_temperature;BMP_pressure;BME280_temperature;BME280_humidity;BME280_pressure;Samples;Min_cycle;Max_cycle;Signal;HPM_P1;HPM_P2
2023/03/15 00:00:14;;;;;;;1.83;0.80;;;11.70;38.80;;;;;;6250012;28;20854;-62
2023/03/15 00:03:17;;;;;;;2.50;0.60;;;11.70;39.40;;;;;;6249433;28;20486;-61
2023/03/15 00:06:22;;;;;;;0.50;0.50;;;11.60;38.50;;;;;;6250213;28;20479;-63
2023/03/15 00:09:25;;;;;;;0.53;0.53;;;11.60;39.30;;;;;;6250047;28;20467;-61
2023/03/15 00:12:29;;;;;;;1.20;1.10;;;11.60;39.40;;;;;;6250310;28;20794;-61
2023/03/15 00:15:32;;;;;;;1.33;0.90;;;11.60;38.20;;;;;;6250551;28;20489;-61
2023/03/15 00:18:35;;;;;;;0.70;0.60;;;11.60;38.70;;;;;;6249802;28;20983;-62
2023/03/15 00:21:42;;;;;;;0.80;0.80;;;11.60;39.20;;;;;;6249822;28;20481;-62
2023/03/15 00:24:45;;;;;;;1.00;0.60;;;11.50;39.00;;;;;;6245399;28;20494;-62
2023/03/15 00:27:48;;;;;;;0.93;0.60;;;11.60;39.00;;;;;;6249180;28;20814;-62
2023/03/15 00:31:03;;;;;;;1.20;0.60;;;11.60;39.00;;;;;;6249439;28;20990;-62
2023/03/15 00:34:06;;;;;;;0.70;0.70;;;11.60;38.20;;;;;;6239748;28;20471;-62
2023/03/15 00:37:11;;;;;;;0.70;0.70;;;11.60;38.40;;;;;;6248747;28;20478;-62
2023/03/15 00:40:15;;;;;;;1.03;0.70;;;11.50;38.80;;;;;;6248278;28;20473;-62
2023/03/15 00:43:18;;;;;;;0.97;0.90;;;11.50;38.60;;;;;;6249116;28;20482;-62
2023/03/15 00:46:21;;;;;;;1.00;0.60;;;11.50;38.20;;;;;;6248381;28;20475;-61
2023/03/15 00:49:24;;;;;;;0.70;0.70;;;11.50;38.80;;;;;;6249155;28;21017;-62
2023/03/15 00:52:34;;;;;;;0.80;0.70;;;11.50;38.10;;;;;;6249816;28;20479;-62
2023/03/15 00:55:37;;;;;;;1.50;0.70;;;11.40;38.00;;;;;;6249883;28;20486;-62
2023/03/15 00:58:41;;;;;;;1.27;0.87;;;11.40;38.50;;;;;;6249732;28;20471;-63
2023/03/15 01:01:44;;;;;;;2.53;0.80;;;11.50;39.20;;;;;;6249564;28;20448;-62
2023/03/15 01:04:48;;;;;;;0.70;0.70;;;11.50;38.70;;;;;;6249675;28;20467;-62
2023/03/15 01:07:53;;;;;;;0.60;0.60;;;11.50;38.80;;;;;;6250207;28;20443;-62
2023/03/15 01:10:56;;;;;;;1.07;0.90;;;11.40;38.00;;;;;;6249291;28;20494;-62
2023/03/15 01:13:59;;;;;;;2.10;0.60;;;11.40;38.10;;;;;;6249338;28;20447;-62
2023/03/15 01:17:03;;;;;;;0.80;0.70;;;11.40;38.30;;;;;;6249181;28;20471;-62
2023/03/15 01:20:07;;;;;;;1.60;0.90;;;11.40;38.20;;;;;;6249263;28;20801;-62
2023/03/15 01:23:12;;;;;;;2.50;0.97;;;11.40;38.70;;;;;;6249244;28;20489;-62
2023/03/15 01:26:16;;;;;;;0.60;0.60;;;11.40;39.20;;;;;;6249221;28;20546;-62
2023/03/15 01:29:19;;;;;;;1.93;0.80;;;11.40;39.50;;;;;;6248822;28;20590;-62
2023/03/15 01:32:23;;;;;;;0.70;0.50;;;11.30;39.40;;;;;;6248433;28;20474;-63
2023/03/15 01:35:26;;;;;;;1.70;0.70;;;11.30;39.70;;;;;;6245096;28;20580;-62
2023/03/15 01:38:31;;;;;;;0.93;0.60;;;11.30;39.70;;;;;;6248945;28;20494;-62
2023/03/15 01:41:34;;;;;;;0.77;0.77;;;11.30;40.20;;;;;;6249155;28;20475;-62
2023/03/15 01:44:50;;;;;;;0.60;0.60;;;11.30;40.60;;;;;;6248779;28;20479;-62
2023/03/15 01:47:53;;;;;;;1.27;0.50;;;11.30;40.70;;;;;;6249003;28;20472;-62
2023/03/15 01:50:57;;;;;;;1.33;0.60;;;11.20;40.90;;;;;;6248386;28;20483;-62
2023/03/15 01:54:07;;;;;;;1.10;0.60;;;11.20;41.20;;;;;;6249091;28;20471;-62
2023/03/15 01:57:15;;;;;;;1.30;0.70;;;11.20;41.80;;;;;;6248243;28;20479;-62
2023/03/15 02:00:20;;;;;;;0.83;0.80;;;11.20;42.30;;;;;;6249093;28;20783;-62
2023/03/15 02:03:29;;;;;;;0.80;0.80;;;11.10;42.40;;;;;;6248442;28;20758;-62
2023/03/15 02:06:34;;;;;;;1.43;0.70;;;11.20;42.50;;;;;;6248517;28;20482;-62
2023/03/15 02:09:47;;;;;;;1.73;0.70;;;11.20;43.00;;;;;;6248541;28;20466;-62
2023/03/15 02:12:52;;;;;;;0.80;0.80;;;11.20;43.10;;;;;;6248669;28;21280;-62
2023/03/15 02:15:56;;;;;;;1.23;0.80;;;11.20;43.40;;;;;;6248695;28;20494;-62
2023/03/15 02:19:00;;;;;;;2.07;0.90;;;11.10;43.40;;;;;;6248205;28;20483;-62
2023/03/15 02:22:16;;;;;;;1.27;0.70;;;11.10;43.20;;;;;;6248132;28;20467;-62
2023/03/15 02:25:26;;;;;;;0.87;0.80;;;11.10;43.40;;;;;;6248669;28;20490;-62
2023/03/15 02:28:31;;;;;;;0.70;0.70;;;11.10;43.30;;;;;;6248283;28;20478;-62
2023/03/15 02:31:36;;;;;;;1.43;0.67;;;11.10;43.70;;;;;;6248387;28;20478;-62
2023/03/15 02:34:40;;;;;;;0.73;0.73;;;11.10;43.80;;;;;;6249089;28;20813;-62
2023/03/15 02:37:44;;;;;;;1.00;0.90;;;11.10;44.00;;;;;;6249779;28;20459;-62
2023/03/15 02:40:48;;;;;;;1.63;0.60;;;11.10;44.00;;;;;;6248792;28;20769;-62
2023/03/15 02:43:56;;;;;;;1.37;0.60;;;11.10;44.40;;;;;;6252912;28;20901;-62
2023/03/15 02:47:03;;;;;;;4.57;0.80;;;11.00;44.40;;;;;;6253059;28;20893;-62
2023/03/15 02:50:07;;;;;;;0.90;0.70;;;11.00;44.40;;;;;;6253598;28;20801;-62
2023/03/15 02:53:11;;;;;;;1.47;0.67;;;11.00;44.80;;;;;;6252918;28;20489;-63
2023/03/15 02:56:14;;;;;;;1.57;0.70;;;11.00;44.80;;;;;;6252514;28;20520;-62
2023/03/15 02:59:19;;;;;;;0.60;0.60;;;11.10;44.90;;;;;;6252782;28;20478;-62
2023/03/15 03:02:23;;;;;;;0.60;0.60;;;11.00;44.80;;;;;;6252252;28;20497;-62
2023/03/15 03:05:26;;;;;;;0.90;0.80;;;11.00;44.90;;;;;;6252259;28;20518;-62
2023/03/15 03:08:30;;;;;;;0.70;0.70;;;11.00;45.00;;;;;;6252466;28;20783;-62
2023/03/15 03:11:33;;;;;;;3.17;0.90;;;10.80;45.10;;;;;;6252379;28;20467;-62
2023/03/15 03:14:37;;;;;;;1.80;0.87;;;11.00;45.20;;;;;;6252065;28;20478;-62
2023/03/15 03:17:41;;;;;;;1.00;0.60;;;10.90;45.40;;;;;;6251712;28;20821;-62
2023/03/15 03:20:44;;;;;;;2.00;0.60;;;11.00;45.60;;;;;;6251622;28;20478;-62
2023/03/15 03:23:48;;;;;;;0.90;0.70;;;11.00;45.30;;;;;;6252280;28;20552;-62
2023/03/15 03:26:56;;;;;;;0.60;0.60;;;10.90;45.20;;;;;;6251479;28;20490;-62
2023/03/15 03:30:01;;;;;;;0.93;0.60;;;10.90;44.90;;;;;;6251929;28;20976;-62
2023/03/15 03:33:04;;;;;;;1.10;0.97;;;10.90;45.00;;;;;;6251914;28;20478;-62
2023/03/15 03:36:08;;;;;;;0.90;0.90;;;10.90;45.20;;;;;;6251700;28;20482;-62
2023/03/15 03:39:11;;;;;;;0.87;0.70;;;10.80;44.80;;;;;;6227286;28;20973;-62
2023/03/15 03:42:15;;;;;;;1.00;0.70;;;10.80;45.30;;;;;;6226534;28;20475;-62
2023/03/15 03:45:19;;;;;;;0.70;0.70;;;10.80;45.10;;;;;;6218006;28;20518;-62
2023/03/15 03:48:23;;;;;;;2.10;0.60;;;10.90;44.80;;;;;;6226421;28;20476;-62
2023/03/15 03:51:26;;;;;;;1.50;0.87;;;10.90;44.60;;;;;;6226823;28;20499;-62
2023/03/15 03:54:30;;;;;;;2.17;0.80;;;10.90;43.80;;;;;;6226042;28;20476;-63
2023/03/15 03:57:34;;;;;;;0.80;0.60;;;10.80;44.30;;;;;;6226591;28;20476;-62
2023/03/15 04:00:38;;;;;;;1.10;0.80;;;10.80;44.20;;;;;;6226730;28;20472;-62
2023/03/15 04:03:41;;;;;;;0.93;0.50;;;10.80;44.10;;;;;;6226784;28;20495;-63
2023/03/15 04:06:45;;;;;;;1.57;0.87;;;10.80;44.00;;;;;;6226564;28;20479;-62
2023/03/15 04:09:48;;;;;;;0.63;0.63;;;10.80;44.20;;;;;;6226350;28;20594;-62
2023/03/15 04:12:52;;;;;;;1.43;0.77;;;10.80;44.60;;;;;;6226236;28;20794;-62
2023/03/15 04:15:57;;;;;;;0.80;0.70;;;10.70;43.50;;;;;;6226063;28;20480;-62
2023/03/15 04:19:00;;;;;;;1.37;0.80;;;10.70;43.80;;;;;;6226352;28;20478;-62
2023/03/15 04:22:05;;;;;;;0.50;0.50;;;10.70;43.80;;;;;;6226437;28;20468;-62
2023/03/15 04:25:09;;;;;;;0.80;0.80;;;10.70;43.60;;;;;;6250454;28;20780;-62
2023/03/15 04:28:12;;;;;;;1.80;0.70;;;10.80;43.50;;;;;;6250304;28;20982;-62
2023/03/15 04:31:16;;;;;;;0.60;0.60;;;10.80;43.50;;;;;;6250292;28;20478;-62
2023/03/15 04:34:20;;;;;;;1.07;0.80;;;10.80;43.30;;;;;;6249167;28;20475;-62
2023/03/15 04:37:23;;;;;;;0.67;0.67;;;10.80;43.10;;;;;;6250340;28;20479;-62
2023/03/15 04:40:26;;;;;;;1.10;0.77;;;10.70;43.30;;;;;;6250370;28;20490;-62
2023/03/15 04:43:30;;;;;;;1.17;0.70;;;10.80;43.30;;;;;;6250572;28;20467;-62
2023/03/15 04:46:34;;;;;;;0.97;0.97;;;10.80;42.90;;;;;;6249669;28;20493;-62
2023/03/15 04:49:37;;;;;;;1.30;1.00;;;10.80;43.00;;;;;;6245467;28;20569;-62
2023/03/15 04:52:41;;;;;;;0.90;0.83;;;10.80;43.50;;;;;;6249282;28;20487;-62
2023/03/15 04:55:44;;;;;;;0.80;0.70;;;10.80;42.90;;;;;;6250195;28;20796;-62
2023/03/15 04:58:47;;;;;;;1.20;0.73;;;10.80;43.00;;;;;;6250041;28;20549;-62
2023/03/15 05:01:52;;;;;;;1.03;0.80;;;10.80;43.00;;;;;;6250178;28;20458;-62
2023/03/15 05:04:55;;;;;;;1.30;0.73;;;10.80;43.20;;;;;;6248935;28;20526;-62
2023/03/15 05:07:58;;;;;;;2.00;1.00;;;10.80;43.30;;;;;;6249685;28;20462;-62
2023/03/15 05:11:01;;;;;;;0.63;0.63;;;10.70;42.90;;;;;;6249611;28;21004;-62
2023/03/15 05:14:05;;;;;;;0.90;0.80;;;10.70;43.30;;;;;;6248900;28;20470;-62
2023/03/15 05:17:09;;;;;;;0.70;0.70;;;10.70;42.90;;;;;;6249639;28;20482;-62
2023/03/15 05:20:13;;;;;;;0.90;0.90;;;10.70;43.10;;;;;;6249374;28;20459;-62
2023/03/15 05:23:16;;;;;;;1.23;0.70;;;10.70;43.10;;;;;;6249211;28;20784;-61
2023/03/15 05:26:19;;;;;;;1.87;1.43;;;10.70;43.40;;;;;;6248953;28;20754;-62
2023/03/15 05:29:23;;;;;;;0.80;0.80;;;10.80;43.20;;;;;;6249172;28;20968;-62
2023/03/15 05:32:28;;;;;;;1.83;1.07;;;10.70;43.40;;;;;;6249031;28;20487;-62
2023/03/15 05:35:31;;;;;;;1.23;1.00;;;10.70;43.40;;;;;;6249518;28;20470;-62
2023/03/15 05:38:34;;;;;;;0.90;0.73;;;10.70;43.70;;;;;;6248881;28;20481;-62
2023/03/15 05:41:38;;;;;;;1.17;0.63;;;10.70;43.40;;;;;;6249357;28;20483;-61
2023/03/15 05:44:41;;;;;;;0.67;0.67;;;10.70;43.40;;;;;;6249221;28;20486;-62
2023/03/15 05:47:45;;;;;;;2.33;1.37;;;10.80;43.50;;;;;;6248832;28;20489;-61
2023/03/15 05:50:48;;;;;;;3.10;1.17;;;10.80;43.90;;;;;;6244885;28;20574;-61
2023/03/15 05:53:52;;;;;;;2.10;1.30;;;10.80;43.90;;;;;;6248624;28;20556;-61
2023/03/15 05:56:55;;;;;;;1.20;0.90;;;10.90;44.20;;;;;;6249168;28;20803;-62
2023/03/15 05:59:58;;;;;;;0.80;0.80;;;10.90;44.20;;;;;;6249121;28;20471;-62
2023/03/15 06:03:03;;;;;;;1.40;0.97;;;10.90;44.30;;;;;;6248989;28;20506;-62
2023/03/15 06:06:07;;;;;;;3.67;0.83;;;10.90;44.30;;;;;;6250231;28;20585;-62
2023/03/15 06:09:10;;;;;;;0.87;0.70;;;10.90;44.60;;;;;;6253459;28;20474;-62
2023/03/15 06:12:13;;;;;;;1.00;0.80;;;10.90;44.80;;;;;;6255762;28;20489;-62
2023/03/15 06:15:17;;;;;;;4.63;0.90;;;10.90;45.00;;;;;;6248641;28;20937;-61
2023/03/15 06:18:21;;;;;;;4.57;0.90;;;10.90;45.20;;;;;;6253023;28;20991;-61
2023/03/15 06:21:24;;;;;;;1.70;0.50;;;10.90;45.20;;;;;;6253333;28;20474;-61
2023/03/15 06:24:28;;;;;;;1.53;0.90;;;10.90;45.50;;;;;;6253185;28;20799;-62
2023/03/15 06:27:31;;;;;;;0.63;0.63;;;10.90;45.60;;;;;;6253556;28;20470;-62
2023/03/15 06:30:35;;;;;;;1.00;0.90;;;10.90;45.80;;;;;;6253606;28;20987;-62
2023/03/15 06:33:40;;;;;;;1.23;0.50;;;10.90;46.00;;;;;;6253120;28;20959;-63
2023/03/15 06:36:44;;;;;;;1.20;0.90;;;11.00;46.10;;;;;;6253073;28;20490;-62
2023/03/15 06:39:47;;;;;;;3.23;1.43;;;11.00;46.10;;;;;;6253249;28;20470;-62
2023/03/15 06:42:50;;;;;;;2.10;0.70;;;11.00;46.40;;;;;;6253091;28;20470;-63
2023/03/15 06:45:54;;;;;;;1.50;1.10;;;11.10;46.70;;;;;;6252589;28;20975;-63
2023/03/15 06:48:59;;;;;;;0.70;0.70;;;11.10;46.70;;;;;;6253069;28;20475;-62
2023/03/15 06:52:03;;;;;;;0.70;0.70;;;11.10;46.70;;;;;;6252737;28;20467;-62
2023/03/15 06:55:07;;;;;;;0.90;0.60;;;11.20;47.00;;;;;;6252805;28;20475;-63
2023/03/15 06:58:10;;;;;;;1.17;0.60;;;11.20;46.80;;;;;;6252430;28;20470;-63
2023/03/15 07:01:14;;;;;;;5.03;0.70;;;11.20;47.40;;;;;;6252489;28;20470;-62
2023/03/15 07:04:20;;;;;;;1.40;0.80;;;11.20;46.80;;;;;;6252167;28;20566;-61
2023/03/15 07:07:23;;;;;;;0.80;0.77;;;11.10;47.50;;;;;;6252932;28;20483;-62
2023/03/15 07:10:26;;;;;;;0.70;0.70;;;11.10;47.40;;;;;;6255275;28;20462;-62
2023/03/15 07:13:30;;;;;;;1.27;0.60;;;11.10;47.40;;;;;;6252017;28;20482;-62
2023/03/15 07:16:33;;;;;;;0.90;0.70;;;11.20;47.00;;;;;;6252441;28;20600;-63
2023/03/15 07:19:38;;;;;;;1.20;0.60;;;11.20;47.20;;;;;;6252142;28;20475;-63
2023/03/15 07:22:57;;;;;;;0.93;0.60;;;11.20;47.60;;;;;;6252216;28;20462;-63
2023/03/15 07:26:00;;;;;;;1.97;1.83;;;11.30;47.20;;;;;;6252273;28;20463;-62
2023/03/15 07:29:04;;;;;;;0.70;0.63;;;11.20;48.10;;;;;;6251080;28;20462;-62
2023/03/15 07:32:07;;;;;;;1.33;0.50;;;11.20;48.30;;;;;;6252300;28;20451;-62
2023/03/15 07:35:12;;;;;;;2.10;0.50;;;11.20;48.50;;;;;;6252020;28;20470;-62
2023/03/15 07:38:16;;;;;;;1.10;0.63;;;11.10;48.20;;;;;;6252334;28;20478;-62
2023/03/15 07:41:19;;;;;;;0.67;0.63;;;11.20;48.50;;;;;;6252172;28;20811;-62
2023/03/15 07:44:22;;;;;;;0.90;0.60;;;11.30;48.20;;;;;;6252257;28;20561;-62
2023/03/15 07:47:25;;;;;;;1.30;0.70;;;11.40;48.40;;;;;;6251782;28;20803;-62
2023/03/15 07:50:30;;;;;;;0.60;0.60;;;11.40;48.20;;;;;;6251538;28;20968;-62
2023/03/15 07:53:34;;;;;;;0.50;0.40;;;11.40;48.60;;;;;;6252028;28;20479;-62
2023/03/15 07:56:37;;;;;;;0.80;0.50;;;11.40;48.70;;;;;;6251701;28;20578;-62
2023/03/15 07:59:40;;;;;;;0.73;0.70;;;11.40;48.70;;;;;;6243181;28;20489;-62
2023/03/15 08:02:43;;;;;;;0.70;0.70;;;11.40;48.80;;;;;;6251666;28;20479;-62
2023/03/15 08:05:48;;;;;;;1.20;0.70;;;11.40;48.80;;;;;;6251388;28;20799;-62
2023/03/15 08:08:51;;;;;;;0.50;0.50;;;11.40;48.90;;;;;;6250472;28;20467;-65
2023/03/15 08:11:54;;;;;;;1.83;0.50;;;11.30;49.40;;;;;;6251800;28;20935;-62
2023/03/15 08:14:58;;;;;;;0.70;0.50;;;11.50;48.90;;;;;;6250644;28;20482;-62
2023/03/15 08:18:01;;;;;;;0.87;0.60;;;11.50;49.10;;;;;;6250281;28;20781;-62
2023/03/15 08:21:09;;;;;;;0.60;0.60;;;11.80;48.60;;;;;;6248534;28;20510;-62
2023/03/15 08:24:12;;;;;;;0.83;0.50;;;11.90;48.20;;;;;;6250415;28;20474;-62
2023/03/15 08:27:16;;;;;;;1.30;0.50;;;12.10;47.50;;;;;;6249628;28;20976;-61
2023/03/15 08:30:20;;;;;;;1.90;0.80;;;12.30;47.10;;;;;;6249962;28;20471;-62
2023/03/15 08:33:24;;;;;;;0.60;0.57;;;12.50;47.10;;;;;;6250711;28;20467;-62
2023/03/15 08:36:28;;;;;;;0.60;0.50;;;12.90;46.80;;;;;;6250510;28;20482;-62
2023/03/15 08:39:35;;;;;;;0.97;0.40;;;13.50;45.60;;;;;;6250840;28;20604;-62
2023/03/15 08:42:38;;;;;;;0.60;0.40;;;14.30;44.50;;;;;;6250341;28;20466;-62
2023/03/15 08:45:41;;;;;;;1.73;0.40;;;15.40;43.30;;;;;;6249902;28;20471;-62
2023/03/15 08:49:03;;;;;;;1.50;0.33;;;16.70;41.00;;;;;;6250035;28;20463;-62
2023/03/15 08:52:08;;;;;;;1.17;0.37;;;17.30;38.80;;;;;;6250568;28;20474;-62
2023/03/15 08:55:13;;;;;;;0.70;0.40;;;17.40;38.10;;;;;;6249936;28;20487;-62
2023/03/15 08:58:16;;;;;;;0.50;0.30;;;17.10;38.10;;;;;;6250352;28;20553;-62
2023/03/15 09:01:19;;;;;;;0.50;0.40;;;16.50;38.10;;;;;;6250186;28;20475;-63
2023/03/15 09:04:22;;;;;;;0.50;0.50;;;15.80;39.10;;;;;;6245925;28;20479;-63
2023/03/15 09:07:27;;;;;;;1.40;1.13;;;15.10;40.30;;;;;;6250285;28;21040;-63
2023/03/15 09:10:30;;;;;;;0.90;0.40;;;14.60;40.60;;;;;;6250088;28;20490;-64
2023/03/15 09:13:34;;;;;;;1.47;0.40;;;14.20;40.30;;;;;;6250014;28;20477;-61
2023/03/15 09:16:37;;;;;;;0.87;0.50;;;13.80;41.10;;;;;;6249630;28;20498;-61
2023/03/15 09:19:40;;;;;;;2.10;0.47;;;13.50;40.60;;;;;;6249791;28;20550;-62
2023/03/15 09:22:50;;;;;;;0.60;0.40;;;13.30;40.20;;;;;;6249597;28;20467;-62
2023/03/15 09:25:53;;;;;;;1.37;0.43;;;12.90;39.90;;;;;;6249973;28;20447;-62
2023/03/15 09:28:57;;;;;;;0.60;0.40;;;13.00;40.50;;;;;;6249465;28;20769;-61
2023/03/15 09:32:00;;;;;;;0.50;0.30;;;12.80;40.10;;;;;;6249227;28;20454;-62
2023/03/15 09:35:05;;;;;;;3.00;0.47;;;13.10;40.40;;;;;;6249129;28;20487;-62
2023/03/15 09:38:10;;;;;;;1.33;0.40;;;13.30;39.60;;;;;;6249673;28;20458;-63
2023/03/15 09:41:28;;;;;;;0.60;0.40;;;13.50;39.40;;;;;;6249458;28;20804;-63
2023/03/15 09:44:44;;;;;;;0.60;0.40;;;13.40;39.40;;;;;;6249662;28;20976;-63
2023/03/15 09:47:55;;;;;;;2.50;0.50;;;13.50;40.20;;;;;;6249733;28;20508;-62
2023/03/15 09:51:02;;;;;;;0.50;0.40;;;13.50;39.80;;;;;;6247505;28;20533;-63
2023/03/15 09:54:12;;;;;;;0.50;0.40;;;13.60;39.80;;;;;;6248769;28;20487;-62
2023/03/15 09:57:21;;;;;;;0.80;0.43;;;14.00;39.50;;;;;;6249416;28;20471;-64
2023/03/15 10:00:34;;;;;;;2.50;0.60;;;14.60;38.90;;;;;;6231796;28;20483;-63
2023/03/15 10:03:47;;;;;;;0.90;0.30;;;14.70;37.80;;;;;;6233656;28;20804;-63
2023/03/15 10:06:57;;;;;;;0.83;0.40;;;14.40;38.00;;;;;;6247149;28;20557;-62
2023/03/15 10:10:03;;;;;;;0.50;0.50;;;13.80;38.80;;;;;;6249066;28;20478;-62
2023/03/15 10:13:21;;;;;;;1.23;0.50;;;13.40;38.90;;;;;;6246138;28;20470;-62
2023/03/15 10:16:36;;;;;;;1.57;0.40;;;12.70;41.20;;;;;;6245411;28;20899;-62
2023/03/15 10:19:48;;;;;;;0.60;0.40;;;12.20;45.70;;;;;;6245493;28;20479;-62
2023/03/15 10:22:59;;;;;;;1.03;0.50;;;11.60;51.50;;;;;;6247685;28;20440;-62
2023/03/15 10:26:07;;;;;;;0.60;0.47;;;11.10;55.30;;;;;;6245375;28;20758;-62
2023/03/15 10:29:15;;;;;;;5.63;0.63;;;11.00;56.30;;;;;;6248492;28;20455;-62
2023/03/15 10:32:20;;;;;;;0.60;0.50;;;11.10;56.30;;;;;;6247960;28;20797;-62
2023/03/15 10:35:24;;;;;;;0.40;0.30;;;11.20;55.10;;;;;;6247585;28;20823;-62
2023/03/15 10:38:28;;;;;;;0.50;0.50;;;11.40;54.10;;;;;;6248497;28;20810;-62
2023/03/15 10:41:38;;;;;;;0.50;0.50;;;11.60;54.60;;;;;;6247591;28;20968;-62
2023/03/15 10:44:41;;;;;;;0.60;0.40;;;12.10;54.40;;;;;;6247003;28;20487;-62
2023/03/15 10:47:44;;;;;;;2.30;0.67;;;12.60;52.80;;;;;;6248278;28;20475;-62
2023/03/15 10:51:04;;;;;;;1.67;0.80;;;13.40;51.60;;;;;;6248680;28;20482;-62
2023/03/15 10:54:13;;;;;;;0.70;0.40;;;14.30;49.10;;;;;;6248272;28;20821;-61
2023/03/15 10:57:20;;;;;;;0.87;0.60;;;14.70;45.80;;;;;;6248591;28;20984;-62
2023/03/15 11:00:29;;;;;;;0.60;0.57;;;14.60;45.10;;;;;;6245892;28;20467;-62
2023/03/15 11:03:33;;;;;;;0.87;0.50;;;14.10;43.80;;;;;;6225430;28;20480;-63
2023/03/15 11:06:42;;;;;;;0.60;0.47;;;13.80;43.30;;;;;;6228252;28;20476;-62
2023/03/15 11:09:52;;;;;;;0.53;0.40;;;13.20;41.50;;;;;;6227927;28;20969;-62
2023/03/15 11:13:20;;;;;;;1.20;0.70;;;13.60;42.30;;;;;;6219272;28;20468;-62
2023/03/15 11:16:23;;;;;;;0.60;0.50;;;14.10;43.20;;;;;;6227685;28;20490;-62
2023/03/15 11:19:30;;;;;;;0.53;0.40;;;14.50;38.60;;;;;;6227968;28;20565;-62
2023/03/15 11:22:33;;;;;;;0.50;0.50;;;14.80;39.80;;;;;;6227746;28;20792;-62
2023/03/15 11:25:36;;;;;;;1.13;0.30;;;15.40;36.00;;;;;;6243867;28;20539;-62
2023/03/15 11:28:46;;;;;;;0.40;0.30;;;16.60;32.60;;;;;;6251703;28;20485;-62
2023/03/15 11:31:50;;;;;;;2.80;0.60;;;16.30;32.10;;;;;;6251925;28;20439;-62
2023/03/15 11:35:00;;;;;;;0.40;0.30;;;15.60;31.90;;;;;;6251959;28;20479;-62
2023/03/15 11:38:11;;;;;;;0.77;0.50;;;14.90;32.40;;;;;;6253340;28;20428;-62
2023/03/15 11:41:28;;;;;;;0.60;0.40;;;14.60;33.10;;;;;;6247793;28;20471;-61
2023/03/15 11:44:39;;;;;;;0.60;0.50;;;14.70;33.10;;;;;;6249186;28;20495;-62
2023/03/15 11:47:50;;;;;;;0.50;0.40;;;14.00;32.30;;;;;;6251696;28;20474;-62
2023/03/15 11:50:54;;;;;;;0.60;0.60;;;14.10;32.40;;;;;;6251932;28;20475;-64
2023/03/15 11:54:06;;;;;;;1.57;0.50;;;14.40;31.50;;;;;;6252057;28;20475;-64
2023/03/15 11:57:39;;;;;;;0.47;0.30;;;14.90;30.60;;;;;;6251409;28;20474;-64
2023/03/15 12:00:54;;;;;;;0.50;0.43;;;16.30;29.00;;;;;;6251377;28;20470;-64
2023/03/15 12:04:37;;;;;;;3.43;0.70;;;17.20;28.30;;;;;;6251689;28;20478;-64
2023/03/15 12:07:59;;;;;;;0.70;0.50;;;17.20;27.00;;;;;;6251304;28;20482;-64
2023/03/15 12:11:11;;;;;;;0.73;0.60;;;17.10;27.40;;;;;;6226047;28;20457;-64
2023/03/15 12:14:29;;;;;;;0.60;0.43;;;17.90;25.90;;;;;;6226233;28;20472;-64
2023/03/15 12:17:44;;;;;;;2.80;0.70;;;17.50;25.50;;;;;;6226807;28;20237;-64
2023/03/15 12:20:57;;;;;;;1.77;0.50;;;19.80;24.60;;;;;;6226513;28;20355;-64
2023/03/15 12:24:04;;;;;;;4.10;0.50;;;22.00;21.80;;;;;;6226406;28;20233;-64
2023/03/15 12:27:15;;;;;;;2.73;0.67;;;23.20;20.20;;;;;;6226809;28;20232;-64
2023/03/15 12:30:24;;;;;;;2.60;0.70;;;24.20;18.80;;;;;;6226155;28;20256;-66
2023/03/15 12:33:29;;;;;;;0.90;0.53;;;25.50;17.80;;;;;;6226618;28;20241;-64
2023/03/15 12:36:35;;;;;;;1.47;0.70;;;24.90;16.60;;;;;;6226129;28;20229;-65
2023/03/15 12:39:48;;;;;;;1.97;0.70;;;24.20;17.10;;;;;;6226547;28;20224;-64
2023/03/15 12:43:01;;;;;;;1.63;0.60;;;24.60;17.10;;;;;;6226062;28;20247;-64
2023/03/15 12:46:07;;;;;;;1.80;0.67;;;22.90;17.20;;;;;;6226146;28;20244;-65
2023/03/15 12:49:13;;;;;;;1.93;0.73;;;21.10;18.50;;;;;;6225923;28;20302;-64
2023/03/15 12:52:43;;;;;;;1.47;0.80;;;19.20;18.50;;;;;;6225819;28;20233;-64
2023/03/15 12:55:46;;;;;;;1.83;1.30;;;17.80;19.70;;;;;;6213223;28;20594;-62
2023/03/15 12:58:56;;;;;;;0.77;0.60;;;16.80;20.20;;;;;;6225368;28;20229;-63
2023/03/15 13:02:03;;;;;;;0.80;0.70;;;15.80;21.60;;;;;;6225444;28;20440;-62
2023/03/15 13:05:18;;;;;;;2.30;1.00;;;15.30;23.70;;;;;;6226138;28;20921;-62
2023/03/15 13:08:24;;;;;;;2.30;0.97;;;15.30;23.10;;;;;;6225508;28;20922;-62
2023/03/15 13:11:35;;;;;;;1.77;0.90;;;15.10;22.30;;;;;;6225550;28;20476;-61
2023/03/15 13:14:43;;;;;;;1.60;0.70;;;14.90;22.60;;;;;;6226116;28;20482;-62
2023/03/15 13:17:51;;;;;;;0.63;0.63;;;15.40;23.60;;;;;;6225494;28;20468;-63
2023/03/15 13:21:10;;;;;;;1.93;0.67;;;17.20;22.40;;;;;;6215845;28;20468;-62
2023/03/15 13:24:23;;;;;;;1.70;0.70;;;18.80;19.90;;;;;;6241752;28;20463;-62
2023/03/15 13:27:38;;;;;;;1.70;0.60;;;20.70;18.30;;;;;;6250906;28;20239;-62
2023/03/15 13:30:46;;;;;;;1.30;0.80;;;22.20;17.10;;;;;;6235993;28;20220;-63
2023/03/15 13:33:56;;;;;;;2.57;0.87;;;23.40;16.60;;;;;;6225213;28;20228;-62
2023/03/15 13:37:02;;;;;;;1.73;0.67;;;23.30;15.70;;;;;;6224906;28;20248;-61
2023/03/15 13:40:12;;;;;;;4.93;1.70;;;23.70;14.90;;;;;;6224464;28;20232;-62
2023/03/15 13:43:15;;;;;;;2.40;0.97;;;23.20;14.90;;;;;;6224405;28;20698;-62
2023/03/15 13:46:21;;;;;;;2.20;1.33;;;22.40;15.60;;;;;;6224059;28;20576;-62
2023/03/15 13:49:31;;;;;;;10.37;4.70;;;20.90;15.30;;;;;;6224669;28;20770;-62
2023/03/15 13:52:34;;;;;;;1.00;0.80;;;18.90;16.60;;;;;;6224177;28;20294;-62
2023/03/15 13:55:39;;;;;;;2.20;1.00;;;17.40;17.70;;;;;;6224998;28;20287;-61
2023/03/15 13:58:43;;;;;;;0.70;0.60;;;15.90;18.40;;;;;;6224676;28;20579;-62
2023/03/15 14:01:46;;;;;;;1.30;0.77;;;15.10;19.60;;;;;;6224814;28;20463;-62
2023/03/15 14:04:56;;;;;;;1.70;0.67;;;14.60;20.60;;;;;;6223952;28;20553;-61
2023/03/15 14:08:02;;;;;;;2.80;0.90;;;14.10;20.90;;;;;;6226675;28;20467;-61
2023/03/15 14:11:08;;;;;;;1.10;0.97;;;13.50;22.60;;;;;;6224494;28;20897;-61
2023/03/15 14:14:23;;;;;;;1.07;0.80;;;13.40;22.50;;;;;;6224418;28;20455;-61
2023/03/15 14:17:29;;;;;;;2.50;0.77;;;13.40;23.10;;;;;;6224118;28;20486;-62
2023/03/15 14:20:39;;;;;;;2.20;0.93;;;13.30;23.30;;;;;;6224077;28;20875;-62
2023/03/15 14:23:45;;;;;;;1.90;0.90;;;13.20;23.00;;;;;;6227872;28;20486;-62
2023/03/15 14:26:53;;;;;;;0.80;0.80;;;13.20;23.50;;;;;;6240290;28;20487;-62
2023/03/15 14:29:58;;;;;;;1.10;1.00;;;13.20;23.40;;;;;;6228533;28;20482;-61
2023/03/15 14:33:05;;;;;;;1.17;0.90;;;13.00;24.30;;;;;;6247454;28;20468;-62
2023/03/15 14:36:24;;;;;;;1.70;1.60;;;13.00;23.60;;;;;;6246770;28;20859;-62
2023/03/15 14:39:30;;;;;;;2.10;1.00;;;12.80;23.90;;;;;;6250906;28;20824;-61
2023/03/15 14:42:33;;;;;;;0.93;0.77;;;12.60;24.80;;;;;;6241380;28;20907;-61
2023/03/15 14:45:38;;;;;;;1.10;0.90;;;12.50;25.30;;;;;;6226951;28;20475;-60
2023/03/15 14:48:42;;;;;;;1.77;1.07;;;12.20;25.00;;;;;;6226717;28;20464;-61
2023/03/15 14:51:49;;;;;;;1.23;1.13;;;12.10;24.80;;;;;;6226795;28;20475;-61
2023/03/15 14:54:52;;;;;;;1.40;1.00;;;12.00;25.00;;;;;;6226154;28;20583;-61
2023/03/15 14:57:56;;;;;;;1.17;0.97;;;11.80;26.10;;;;;;6250739;28;20509;-60
2023/03/15 15:00:59;;;;;;;1.23;0.90;;;11.70;26.10;;;;;;6250898;28;20478;-62
2023/03/15 15:04:03;;;;;;;2.97;2.13;;;11.60;26.10;;;;;;6251111;28;20478;-61
2023/03/15 15:07:10;;;;;;;1.23;0.90;;;11.50;26.40;;;;;;6250841;28;20469;-61
2023/03/15 15:10:14;;;;;;;1.77;0.93;;;11.50;26.50;;;;;;6232829;28;20475;-61
2023/03/15 15:13:19;;;;;;;3.03;1.00;;;11.50;27.20;;;;;;6226376;28;20478;-61
2023/03/15 15:16:23;;;;;;;1.00;0.90;;;11.40;27.10;;;;;;6232973;28;20471;-61
2023/03/15 15:19:26;;;;;;;1.93;0.93;;;11.30;27.50;;;;;;6250719;28;20979;-61
2023/03/15 15:22:31;;;;;;;2.50;1.20;;;11.20;27.40;;;;;;6251407;28;20478;-61
2023/03/15 15:25:35;;;;;;;1.87;1.13;;;11.10;27.30;;;;;;6253542;28;20475;-62
2023/03/15 15:28:38;;;;;;;1.33;1.10;;;11.00;27.40;;;;;;6246561;28;20502;-60
2023/03/15 15:31:43;;;;;;;3.00;1.33;;;10.80;27.10;;;;;;6249748;28;20498;-61
2023/03/15 15:34:46;;;;;;;1.63;1.13;;;10.70;27.80;;;;;;6250518;28;20483;-64
2023/03/15 15:37:52;;;;;;;2.13;1.00;;;10.60;27.40;;;;;;6249933;28;21018;-63
2023/03/15 15:40:55;;;;;;;2.93;1.40;;;10.40;27.10;;;;;;6251426;28;20463;-62
2023/03/15 15:43:59;;;;;;;1.30;1.20;;;10.30;27.30;;;;;;6250922;28;20480;-63
2023/03/15 15:47:03;;;;;;;2.47;1.10;;;10.20;27.50;;;;;;6251108;28;20455;-63
2023/03/15 15:50:07;;;;;;;3.00;1.37;;;10.00;28.00;;;;;;6250333;28;20530;-62
2023/03/15 15:53:18;;;;;;;4.80;1.50;;;9.90;28.00;;;;;;6250545;28;20478;-64
2023/03/15 15:56:25;;;;;;;1.83;1.00;;;9.90;28.50;;;;;;6249512;28;20831;-65
2023/03/15 15:59:29;;;;;;;1.50;1.40;;;9.90;28.40;;;;;;6251310;28;20467;-65
2023/03/15 16:02:33;;;;;;;6.67;1.13;;;9.90;28.90;;;;;;6251482;28;20478;-65
2023/03/15 16:05:37;;;;;;;2.50;0.90;;;9.90;28.70;;;;;;6251451;28;21082;-63
2023/03/15 16:08:43;;;;;;;1.73;1.17;;;9.90;28.40;;;;;;6244419;28;20472;-65